sensor_id;sensor_type;location;lat;lon;timestamp;pressure;altitude;pressure_sealevel;temperature;humidity
39491;BME280;25175;50.140;18.990;2022-10-31T00:02:59;98887.22;;;12.84;67.27
39491;BME280;25175;50.140;18.990;2022-10-31T00:06:02;98893.31;;;12.78;67.12
39491;BME280;25175;50.140;18.990;2022-10-31T00:09:04;98896.56;;;12.73;67.30
39491;BME280;25175;50.140;18.990;2022-10-31T00:12:06;98887.84;;;12.73;67.26
39491;BME280;25175;50.140;18.990;2022-10-31T00:15:08;98890.31;;;12.68;67.26
39491;BME280;25175;50.140;18.990;2022-10-31T00:18:10;98890.91;;;12.63;67.70
39491;BME280;25175;50.140;18.990;2022-10-31T00:21:14;98888.91;;;12.65;67.71
39491;BME280;25175;50.140;18.990;2022-10-31T00:24:16;98892.72;;;12.69;67.67
39491;BME280;25175;50.140;18.990;2022-10-31T00:27:18;98893.53;;;12.70;67.20
39491;BME280;25175;50.140;18.990;2022-10-31T00:30:20;98891.09;;;12.68;67.34
39491;BME280;25175;50.140;18.990;2022-10-31T00:33:22;98889.50;;;12.67;67.27
39491;BME280;25175;50.140;18.990;2022-10-31T00:36:25;98893.75;;;12.68;67.53
39491;BME280;25175;50.140;18.990;2022-10-31T00:39:27;98885.84;;;12.68;67.22
39491;BME280;25175;50.140;18.990;2022-10-31T00:42:28;98889.88;;;12.64;67.20
39491;BME280;25175;50.140;18.990;2022-10-31T00:45:32;98888.47;;;12.62;67.38
39491;BME280;25175;50.140;18.990;2022-10-31T00:48:34;98886.66;;;12.62;67.17
39491;BME280;25175;50.140;18.990;2022-10-31T00:51:37;98897.38;;;12.61;67.07
39491;BME280;25175;50.140;18.990;2022-10-31T00:54:39;98891.34;;;12.54;67.21
39491;BME280;25175;50.140;18.990;2022-10-31T00:57:41;98874.34;;;12.50;67.41
39491;BME280;25175;50.140;18.990;2022-10-31T01:00:46;98893.75;;;12.55;67.00
39491;BME280;25175;50.140;18.990;2022-10-31T01:03:51;98899.22;;;12.54;67.38
39491;BME280;25175;50.140;18.990;2022-10-31T01:06:54;98891.34;;;12.54;67.11
39491;BME280;25175;50.140;18.990;2022-10-31T01:09:58;98891.13;;;12.55;67.34
39491;BME280;25175;50.140;18.990;2022-10-31T01:13:00;98892.34;;;12.53;67.42
39491;BME280;25175;50.140;18.990;2022-10-31T01:16:04;98889.31;;;12.49;67.44
39491;BME280;25175;50.140;18.990;2022-10-31T01:19:07;98897.41;;;12.48;67.40
39491;BME280;25175;50.140;18.990;2022-10-31T01:22:10;98889.91;;;12.45;67.34
39491;BME280;25175;50.140;18.990;2022-10-31T01:25:12;98897.59;;;12.40;67.54
39491;BME280;25175;50.140;18.990;2022-10-31T01:28:13;98886.91;;;12.35;67.80
39491;BME280;25175;50.140;18.990;2022-10-31T01:31:17;98896.19;;;12.31;67.84
39491;BME280;25175;50.140;18.990;2022-10-31T01:34:19;98892.34;;;12.27;68.01
39491;BME280;25175;50.140;18.990;2022-10-31T01:37:22;98893.16;;;12.21;68.11
39491;BME280;25175;50.140;18.990;2022-10-31T01:40:24;98888.09;;;12.19;68.21
39491;BME280;25175;50.140;18.990;2022-10-31T01:43:41;98890.53;;;12.21;68.16
39491;BME280;25175;50.140;18.990;2022-10-31T01:46:47;98892.34;;;12.20;68.22
39491;BME280;25175;50.140;18.990;2022-10-31T01:49:53;98893.34;;;12.19;68.17
39491;BME280;25175;50.140;18.990;2022-10-31T01:52:57;98890.72;;;12.19;68.04
39491;BME280;25175;50.140;18.990;2022-10-31T01:56:01;98890.75;;;12.13;67.97
39491;BME280;25175;50.140;18.990;2022-10-31T01:59:08;98895.59;;;12.03;68.23
39491;BME280;25175;50.140;18.990;2022-10-31T02:02:15;98879.75;;;11.90;68.36
39491;BME280;25175;50.140;18.990;2022-10-31T02:05:22;98897.97;;;11.85;69.13
39491;BME280;25175;50.140;18.990;2022-10-31T02:08:28;98894.28;;;11.79;69.21
39491;BME280;25175;50.140;18.990;2022-10-31T02:11:31;98897.13;;;11.71;69.62
39491;BME280;25175;50.140;18.990;2022-10-31T02:14:33;98885.41;;;11.67;69.94
39491;BME280;25175;50.140;18.990;2022-10-31T02:17:37;98881.16;;;11.66;70.05
39491;BME280;25175;50.140;18.990;2022-10-31T02:20:45;98880.94;;;11.61;70.39
39491;BME280;25175;50.140;18.990;2022-10-31T02:24:17;98892.00;;;11.57;70.69
39491;BME280;25175;50.140;18.990;2022-10-31T02:27:36;98891.41;;;11.55;70.62
39491;BME280;25175;50.140;18.990;2022-10-31T02:31:01;98898.88;;;11.51;71.07
39491;BME280;25175;50.140;18.990;2022-10-31T02:34:14;98886.34;;;11.47;71.20
39491;BME280;25175;50.140;18.990;2022-10-31T02:37:25;98897.03;;;11.45;71.13
39491;BME280;25175;50.140;18.990;2022-10-31T02:40:34;98898.06;;;11.44;71.20
39491;BME280;25175;50.140;18.990;2022-10-31T02:44:05;98895.63;;;11.43;71.84
39491;BME280;25175;50.140;18.990;2022-10-31T02:47:14;98909.75;;;11.42;71.99
39491;BME280;25175;50.140;18.990;2022-10-31T02:50:21;98902.06;;;11.40;71.81
39491;BME280;25175;50.140;18.990;2022-10-31T02:53:25;98907.91;;;11.42;71.70
39491;BME280;25175;50.140;18.990;2022-10-31T02:56:27;98902.28;;;11.45;71.76
39491;BME280;25175;50.140;18.990;2022-10-31T02:59:30;98909.34;;;11.45;71.63
39491;BME280;25175;50.140;18.990;2022-10-31T03:02:51;98907.53;;;11.45;71.81
39491;BME280;25175;50.140;18.990;2022-10-31T03:05:59;98910.94;;;11.46;71.68
39491;BME280;25175;50.140;18.990;2022-10-31T03:09:10;98903.88;;;11.40;71.20
39491;BME280;25175;50.140;18.990;2022-10-31T03:12:21;98919.59;;;11.40;72.01
39491;BME280;25175;50.140;18.990;2022-10-31T03:15:29;98907.31;;;11.40;71.50
39491;BME280;25175;50.140;18.990;2022-10-31T03:18:37;98907.72;;;11.44;71.96
39491;BME280;25175;50.140;18.990;2022-10-31T03:21:43;98916.81;;;11.48;71.84
39491;BME280;25175;50.140;18.990;2022-10-31T03:24:46;98917.25;;;11.51;71.67
39491;BME280;25175;50.140;18.990;2022-10-31T03:27:50;98918.84;;;11.52;70.90
39491;BME280;25175;50.140;18.990;2022-10-31T03:30:53;98918.81;;;11.46;71.10
39491;BME280;25175;50.140;18.990;2022-10-31T03:33:59;98916.81;;;11.48;71.22
39491;BME280;25175;50.140;18.990;2022-10-31T03:37:07;98923.47;;;11.44;71.03
39491;BME280;25175;50.140;18.990;2022-10-31T03:40:12;98925.25;;;11.43;71.14
39491;BME280;25175;50.140;18.990;2022-10-31T03:43:19;98925.25;;;11.43;70.68
39491;BME280;25175;50.140;18.990;2022-10-31T03:46:23;98922.63;;;11.37;70.92
39491;BME280;25175;50.140;18.990;2022-10-31T03:49:30;98932.72;;;11.33;71.29
39491;BME280;25175;50.140;18.990;2022-10-31T03:52:37;98928.03;;;11.29;71.37
39491;BME280;25175;50.140;18.990;2022-10-31T03:55:49;98925.81;;;11.26;71.20
39491;BME280;25175;50.140;18.990;2022-10-31T03:58:58;98932.88;;;11.25;71.33
39491;BME280;25175;50.140;18.990;2022-10-31T04:02:06;98938.28;;;11.24;71.54
39491;BME280;25175;50.140;18.990;2022-10-31T04:05:13;98928.81;;;11.23;71.44
39491;BME280;25175;50.140;18.990;2022-10-31T04:08:20;98934.47;;;11.20;71.49
39491;BME280;25175;50.140;18.990;2022-10-31T04:11:28;98938.09;;;11.25;71.24
39491;BME280;25175;50.140;18.990;2022-10-31T04:14:52;98936.69;;;11.23;71.25
39491;BME280;25175;50.140;18.990;2022-10-31T04:17:58;98942.53;;;11.18;71.04
39491;BME280;25175;50.140;18.990;2022-10-31T04:21:04;98946.56;;;11.21;71.31
39491;BME280;25175;50.140;18.990;2022-10-31T04:24:07;98942.94;;;11.22;71.09
39491;BME280;25175;50.140;18.990;2022-10-31T04:27:11;98949.97;;;11.21;70.92
39491;BME280;25175;50.140;18.990;2022-10-31T04:30:13;98942.94;;;11.22;71.27
39491;BME280;25175;50.140;18.990;2022-10-31T04:33:16;98941.31;;;11.21;71.02
39491;BME280;25175;50.140;18.990;2022-10-31T04:36:21;98945.31;;;11.17;70.96
39491;BME280;25175;50.140;18.990;2022-10-31T04:39:23;98948.59;;;11.19;71.16
39491;BME280;25175;50.140;18.990;2022-10-31T04:42:44;98943.34;;;11.19;70.31
39491;BME280;25175;50.140;18.990;2022-10-31T04:45:46;98952.59;;;11.15;70.31
39491;BME280;25175;50.140;18.990;2022-10-31T04:48:48;98950.34;;;11.12;70.63
39491;BME280;25175;50.140;18.990;2022-10-31T04:51:52;98948.50;;;11.06;70.21
39491;BME280;25175;50.140;18.990;2022-10-31T04:54:54;98948.84;;;10.96;70.68
39491;BME280;25175;50.140;18.990;2022-10-31T04:58:16;98946.56;;;10.87;71.09
39491;BME280;25175;50.140;18.990;2022-10-31T05:01:18;98942.94;;;10.88;71.07
39491;BME280;25175;50.140;18.990;2022-10-31T05:04:23;98941.94;;;10.89;71.33
39491;BME280;25175;50.140;18.990;2022-10-31T05:07:26;98943.13;;;10.86;71.18
39491;BME280;25175;50.140;18.990;2022-10-31T05:10:29;98944.13;;;10.85;71.27
39491;BME280;25175;50.140;18.990;2022-10-31T05:13:33;98935.28;;;10.86;71.14
39491;BME280;25175;50.140;18.990;2022-10-31T05:16:41;98937.47;;;10.83;71.80
39491;BME280;25175;50.140;18.990;2022-10-31T05:20:01;98946.94;;;10.84;71.10
39491;BME280;25175;50.140;18.990;2022-10-31T05:23:34;98954.00;;;10.83;71.10
39491;BME280;25175;50.140;18.990;2022-10-31T05:26:38;98951.19;;;10.85;71.13
39491;BME280;25175;50.140;18.990;2022-10-31T05:29:40;98952.00;;;10.85;71.21
39491;BME280;25175;50.140;18.990;2022-10-31T05:32:43;98969.34;;;10.86;71.31
39491;BME280;25175;50.140;18.990;2022-10-31T05:36:12;98968.56;;;10.86;71.06
39491;BME280;25175;50.140;18.990;2022-10-31T05:39:26;98975.34;;;10.80;71.22
39491;BME280;25175;50.140;18.990;2022-10-31T05:42:33;98991.41;;;10.77;71.31
39491;BME280;25175;50.140;18.990;2022-10-31T05:45:35;98986.94;;;10.71;71.64
39491;BME280;25175;50.140;18.990;2022-10-31T05:48:41;98979.03;;;10.65;71.56
39491;BME280;25175;50.140;18.990;2022-10-31T05:52:03;98975.59;;;10.64;71.98
39491;BME280;25175;50.140;18.990;2022-10-31T05:55:16;98974.34;;;10.60;72.12
39491;BME280;25175;50.140;18.990;2022-10-31T05:58:32;98979.16;;;10.57;72.79
39491;BME280;25175;50.140;18.990;2022-10-31T06:01:38;98986.41;;;10.55;72.04
39491;BME280;25175;50.140;18.990;2022-10-31T06:04:55;98986.41;;;10.55;72.62
39491;BME280;25175;50.140;18.990;2022-10-31T06:07:57;98993.41;;;10.48;72.31
39491;BME280;25175;50.140;18.990;2022-10-31T06:11:00;98994.97;;;10.42;73.19
39491;BME280;25175;50.140;18.990;2022-10-31T06:14:22;98999.94;;;10.37;73.55
39491;BME280;25175;50.140;18.990;2022-10-31T06:17:28;98997.31;;;10.37;73.45
39491;BME280;25175;50.140;18.990;2022-10-31T06:20:50;99003.13;;;10.33;73.95
39491;BME280;25175;50.140;18.990;2022-10-31T06:23:53;98998.25;;;10.30;73.92
39491;BME280;25175;50.140;18.990;2022-10-31T06:27:22;99001.88;;;10.29;74.10
39491;BME280;25175;50.140;18.990;2022-10-31T06:30:25;99005.31;;;10.29;73.58
39491;BME280;25175;50.140;18.990;2022-10-31T06:33:27;99012.34;;;10.29;73.95
39491;BME280;25175;50.140;18.990;2022-10-31T06:36:35;99004.50;;;10.29;74.27
39491;BME280;25175;50.140;18.990;2022-10-31T06:39:38;99016.41;;;10.31;74.68
39491;BME280;25175;50.140;18.990;2022-10-31T06:42:43;99007.00;;;10.37;74.28
39491;BME280;25175;50.140;18.990;2022-10-31T06:45:45;99016.91;;;10.41;74.02
39491;BME280;25175;50.140;18.990;2022-10-31T06:48:59;99014.31;;;10.41;74.71
39491;BME280;25175;50.140;18.990;2022-10-31T06:52:11;99011.94;;;10.46;74.52
39491;BME280;25175;50.140;18.990;2022-10-31T06:55:14;99018.78;;;10.47;74.20
39491;BME280;25175;50.140;18.990;2022-10-31T06:58:17;99017.97;;;10.47;74.18
39491;BME280;25175;50.140;18.990;2022-10-31T07:01:21;99024.09;;;10.54;74.19
39491;BME280;25175;50.140;18.990;2022-10-31T07:04:23;99022.69;;;10.58;74.44
39491;BME280;25175;50.140;18.990;2022-10-31T07:07:25;99024.78;;;10.62;73.90
39491;BME280;25175;50.140;18.990;2022-10-31T07:10:29;99030.88;;;10.69;73.90
39491;BME280;25175;50.140;18.990;2022-10-31T07:13:36;99033.56;;;10.76;73.96
39491;BME280;25175;50.140;18.990;2022-10-31T07:16:41;99028.38;;;10.82;73.87
39491;BME280;25175;50.140;18.990;2022-10-31T07:19:45;99034.69;;;10.88;73.46
39491;BME280;25175;50.140;18.990;2022-10-31T07:22:50;99042.41;;;10.96;73.80
39491;BME280;25175;50.140;18.990;2022-10-31T07:25:55;99034.78;;;11.01;73.80
39491;BME280;25175;50.140;18.990;2022-10-31T07:29:01;99040.09;;;11.07;73.87
39491;BME280;25175;50.140;18.990;2022-10-31T07:32:03;99042.94;;;11.12;73.20
39491;BME280;25175;50.140;18.990;2022-10-31T07:35:08;99045.38;;;11.14;72.66
39491;BME280;25175;50.140;18.990;2022-10-31T07:38:28;99042.38;;;11.17;72.93
39491;BME280;25175;50.140;18.990;2022-10-31T07:41:30;99049.84;;;11.20;73.01
39491;BME280;25175;50.140;18.990;2022-10-31T07:44:33;99053.13;;;11.28;73.05
39491;BME280;25175;50.140;18.990;2022-10-31T07:47:54;99033.22;;;11.40;73.35
39491;BME280;25175;50.140;18.990;2022-10-31T07:51:14;99038.75;;;11.52;72.82
39491;BME280;25175;50.140;18.990;2022-10-31T07:54:34;99040.19;;;11.61;72.54
39491;BME280;25175;50.140;18.990;2022-10-31T07:57:36;99036.44;;;11.70;72.34
39491;BME280;25175;50.140;18.990;2022-10-31T08:00:41;99035.63;;;11.76;71.96
39491;BME280;25175;50.140;18.990;2022-10-31T08:03:45;99044.16;;;11.84;71.62
39491;BME280;25175;50.140;18.990;2022-10-31T08:07:05;99045.81;;;11.92;71.51
39491;BME280;25175;50.140;18.990;2022-10-31T08:10:10;99046.28;;;12.02;71.58
39491;BME280;25175;50.140;18.990;2022-10-31T08:13:13;99043.09;;;12.13;71.40
39491;BME280;25175;50.140;18.990;2022-10-31T08:16:20;99042.28;;;12.25;71.19
39491;BME280;25175;50.140;18.990;2022-10-31T08:19:31;99054.66;;;12.38;70.80
39491;BME280;25175;50.140;18.990;2022-10-31T08:22:33;99051.84;;;12.46;70.24
39491;BME280;25175;50.140;18.990;2022-10-31T08:25:36;99049.63;;;12.56;70.32
39491;BME280;25175;50.140;18.990;2022-10-31T08:28:38;99044.78;;;12.66;70.15
39491;BME280;25175;50.140;18.990;2022-10-31T08:31:41;99049.66;;;12.75;69.43
39491;BME280;25175;50.140;18.990;2022-10-31T08:35:01;99048.84;;;12.88;69.35
39491;BME280;25175;50.140;18.990;2022-10-31T08:38:22;99042.81;;;13.00;68.76
39491;BME280;25175;50.140;18.990;2022-10-31T08:41:24;99042.19;;;13.11;69.25
39491;BME280;25175;50.140;18.990;2022-10-31T08:44:26;99041.78;;;13.27;69.23
39491;BME280;25175;50.140;18.990;2022-10-31T08:47:30;99046.63;;;13.43;68.98
39491;BME280;25175;50.140;18.990;2022-10-31T08:50:34;99049.59;;;13.60;68.33
39491;BME280;25175;50.140;18.990;2022-10-31T08:53:36;99041.44;;;13.74;67.97
39491;BME280;25175;50.140;18.990;2022-10-31T08:56:57;99053.97;;;13.85;67.70
39491;BME280;25175;50.140;18.990;2022-10-31T09:00:14;99056.38;;;14.00;67.35
39491;BME280;25175;50.140;18.990;2022-10-31T09:03:36;99054.28;;;14.15;67.07
39491;BME280;25175;50.140;18.990;2022-10-31T09:06:38;99058.47;;;14.29;66.89
39491;BME280;25175;50.140;18.990;2022-10-31T09:09:40;99058.56;;;14.47;66.58
39491;BME280;25175;50.140;18.990;2022-10-31T09:12:43;99061.94;;;14.60;65.59
39491;BME280;25175;50.140;18.990;2022-10-31T09:16:04;99050.84;;;14.76;65.36
39491;BME280;25175;50.140;18.990;2022-10-31T09:19:09;99055.22;;;14.89;64.97
39491;BME280;25175;50.140;18.990;2022-10-31T09:22:11;99062.84;;;15.03;65.08
39491;BME280;25175;50.140;18.990;2022-10-31T09:25:13;99060.91;;;15.17;63.97
39491;BME280;25175;50.140;18.990;2022-10-31T09:28:21;99051.84;;;15.31;63.79
39491;BME280;25175;50.140;18.990;2022-10-31T09:31:24;99040.19;;;15.38;63.34
39491;BME280;25175;50.140;18.990;2022-10-31T09:34:34;99049.09;;;15.62;63.55
39491;BME280;25175;50.140;18.990;2022-10-31T09:37:53;99055.00;;;15.82;62.81
39491;BME280;25175;50.140;18.990;2022-10-31T09:41:03;99053.78;;;15.96;62.50
39491;BME280;25175;50.140;18.990;2022-10-31T09:44:12;99047.47;;;16.15;62.09
39491;BME280;25175;50.140;18.990;2022-10-31T09:47:29;99052.34;;;16.29;61.53
39491;BME280;25175;50.140;18.990;2022-10-31T09:51:04;99047.22;;;16.45;60.87
39491;BME280;25175;50.140;18.990;2022-10-31T09:54:24;99051.88;;;16.61;60.48
39491;BME280;25175;50.140;18.990;2022-10-31T09:57:29;99053.78;;;16.73;60.28
39491;BME280;25175;50.140;18.990;2022-10-31T10:00:34;99047.25;;;16.87;60.04
39491;BME280;25175;50.140;18.990;2022-10-31T10:03:39;99044.72;;;17.03;59.19
39491;BME280;25175;50.140;18.990;2022-10-31T10:07:13;99044.88;;;17.19;59.25
39491;BME280;25175;50.140;18.990;2022-10-31T10:10:25;99048.53;;;17.41;59.18
39491;BME280;25175;50.140;18.990;2022-10-31T10:14:09;99046.56;;;17.71;58.75
39491;BME280;25175;50.140;18.990;2022-10-31T10:17:21;99043.66;;;17.84;57.85
39491;BME280;25175;50.140;18.990;2022-10-31T10:20:31;99037.97;;;18.04;57.89
39491;BME280;25175;50.140;18.990;2022-10-31T10:23:48;99039.16;;;18.24;57.47
39491;BME280;25175;50.140;18.990;2022-10-31T10:26:59;99037.38;;;18.41;57.21
39491;BME280;25175;50.140;18.990;2022-10-31T10:30:15;99031.66;;;18.49;56.39
39491;BME280;25175;50.140;18.990;2022-10-31T10:33:20;99035.97;;;18.67;55.65
39491;BME280;25175;50.140;18.990;2022-10-31T10:36:28;99034.94;;;18.84;55.60
39491;BME280;25175;50.140;18.990;2022-10-31T10:39:39;99031.41;;;18.95;55.37
39491;BME280;25175;50.140;18.990;2022-10-31T10:42:45;99036.88;;;19.05;54.63
39491;BME280;25175;50.140;18.990;2022-10-31T10:46:17;99027.47;;;19.14;54.95
39491;BME280;25175;50.140;18.990;2022-10-31T10:49:42;99023.34;;;19.23;54.92
39491;BME280;25175;50.140;18.990;2022-10-31T10:52:58;99025.88;;;19.35;54.48
39491;BME280;25175;50.140;18.990;2022-10-31T10:56:11;99030.06;;;19.47;54.15
39491;BME280;25175;50.140;18.990;2022-10-31T10:59:18;99013.94;;;19.54;53.06
39491;BME280;25175;50.140;18.990;2022-10-31T11:02:24;99000.88;;;19.52;53.71
39491;BME280;25175;50.140;18.990;2022-10-31T11:05:33;99011.53;;;19.74;53.51
39491;BME280;25175;50.140;18.990;2022-10-31T11:08:36;99010.31;;;19.81;52.99
39491;BME280;25175;50.140;18.990;2022-10-31T11:11:39;99019.97;;;19.87;52.49
39491;BME280;25175;50.140;18.990;2022-10-31T11:14:45;99010.97;;;19.93;52.00
39491;BME280;25175;50.140;18.990;2022-10-31T11:17:50;99011.91;;;20.04;52.12
39491;BME280;25175;50.140;18.990;2022-10-31T11:20:55;99004.84;;;20.14;51.94
39491;BME280;25175;50.140;18.990;2022-10-31T11:24:13;99000.16;;;20.21;51.86
39491;BME280;25175;50.140;18.990;2022-10-31T11:27:22;98997.56;;;20.31;52.24
39491;BME280;25175;50.140;18.990;2022-10-31T11:30:24;98991.22;;;20.37;50.73
39491;BME280;25175;50.140;18.990;2022-10-31T11:33:30;99006.16;;;20.38;50.60
39491;BME280;25175;50.140;18.990;2022-10-31T11:36:35;98992.28;;;20.36;50.61
39491;BME280;25175;50.140;18.990;2022-10-31T11:39:41;98996.53;;;20.37;51.27
39491;BME280;25175;50.140;18.990;2022-10-31T11:42:46;99002.75;;;20.43;50.80
39491;BME280;25175;50.140;18.990;2022-10-31T11:45:48;98991.41;;;20.52;50.57
39491;BME280;25175;50.140;18.990;2022-10-31T11:48:52;98982.16;;;20.60;50.36
39491;BME280;25175;50.140;18.990;2022-10-31T11:51:56;98993.09;;;20.63;49.54
39491;BME280;25175;50.140;18.990;2022-10-31T11:55:03;98998.72;;;20.67;49.92
39491;BME280;25175;50.140;18.990;2022-10-31T11:58:24;98991.34;;;20.74;50.28
39491;BME280;25175;50.140;18.990;2022-10-31T12:01:27;98989.00;;;20.82;49.93
39491;BME280;25175;50.140;18.990;2022-10-31T12:04:37;98988.97;;;20.77;48.91
39491;BME280;25175;50.140;18.990;2022-10-31T12:07:41;98988.06;;;20.67;48.94
39491;BME280;25175;50.140;18.990;2022-10-31T12:10:51;98984.78;;;20.55;48.82
39491;BME280;25175;50.140;18.990;2022-10-31T12:14:08;98977.03;;;20.53;50.41
39491;BME280;25175;50.140;18.990;2022-10-31T12:17:14;98972.56;;;20.59;49.48
39491;BME280;25175;50.140;18.990;2022-10-31T12:20:23;98971.31;;;20.66;49.67
39491;BME280;25175;50.140;18.990;2022-10-31T12:23:37;98977.97;;;20.69;48.79
39491;BME280;25175;50.140;18.990;2022-10-31T12:26:48;98985.69;;;20.65;48.17
39491;BME280;25175;50.140;18.990;2022-10-31T12:30:15;98965.97;;;20.66;48.51
39491;BME280;25175;50.140;18.990;2022-10-31T12:33:29;98971.31;;;20.66;48.62
39491;BME280;25175;50.140;18.990;2022-10-31T12:36:46;98967.03;;;20.65;48.92
39491;BME280;25175;50.140;18.990;2022-10-31T12:40:01;98962.78;;;20.69;48.23
39491;BME280;25175;50.140;18.990;2022-10-31T12:43:16;98951.84;;;20.66;48.77
39491;BME280;25175;50.140;18.990;2022-10-31T12:46:29;98958.81;;;20.72;48.83
39491;BME280;25175;50.140;18.990;2022-10-31T12:49:44;98948.44;;;20.75;48.63
39491;BME280;25175;50.140;18.990;2022-10-31T12:53:00;98959.34;;;20.69;46.75
39491;BME280;25175;50.140;18.990;2022-10-31T12:56:21;98955.31;;;20.66;48.59
39491;BME280;25175;50.140;18.990;2022-10-31T12:59:30;98952.66;;;20.66;48.29
39491;BME280;25175;50.140;18.990;2022-10-31T13:02:38;98944.97;;;20.70;48.18
39491;BME280;25175;50.140;18.990;2022-10-31T13:05:44;98945.97;;;20.64;47.73
39491;BME280;25175;50.140;18.990;2022-10-31T13:08:50;98942.72;;;20.57;47.90
39491;BME280;25175;50.140;18.990;2022-10-31T13:11:56;98948.31;;;20.55;48.88
39491;BME280;25175;50.140;18.990;2022-10-31T13:15:04;98947.78;;;20.58;47.58
39491;BME280;25175;50.140;18.990;2022-10-31T13:18:25;98938.19;;;20.57;47.57
39491;BME280;25175;50.140;18.990;2022-10-31T13:21:34;98946.75;;;20.64;48.28
39491;BME280;25175;50.140;18.990;2022-10-31T13:24:41;98939.63;;;20.70;48.11
39491;BME280;25175;50.140;18.990;2022-10-31T13:27:48;98939.38;;;20.71;48.10
39491;BME280;25175;50.140;18.990;2022-10-31T13:30:52;98938.84;;;20.74;48.06
39491;BME280;25175;50.140;18.990;2022-10-31T13:33:57;98937.28;;;20.78;48.00
39491;BME280;25175;50.140;18.990;2022-10-31T13:37:06;98932.50;;;20.80;47.85
39491;BME280;25175;50.140;18.990;2022-10-31T13:40:19;98934.09;;;20.81;48.02
39491;BME280;25175;50.140;18.990;2022-10-31T13:43:31;98943.94;;;20.76;48.40
39491;BME280;25175;50.140;18.990;2022-10-31T13:46:38;98949.50;;;20.74;47.95
39491;BME280;25175;50.140;18.990;2022-10-31T13:49:41;98943.66;;;20.72;48.29
39491;BME280;25175;50.140;18.990;2022-10-31T13:52:43;98951.84;;;20.66;48.32
39491;BME280;25175;50.140;18.990;2022-10-31T13:55:47;98940.88;;;20.57;48.62
39491;BME280;25175;50.140;18.990;2022-10-31T13:59:15;98942.97;;;20.55;49.05
39491;BME280;25175;50.140;18.990;2022-10-31T14:02:25;98940.03;;;20.52;49.00
39491;BME280;25175;50.140;18.990;2022-10-31T14:05:30;98947.94;;;20.47;49.34
39491;BME280;25175;50.140;18.990;2022-10-31T14:08:37;98935.91;;;20.39;49.44
39491;BME280;25175;50.140;18.990;2022-10-31T14:11:39;98933.69;;;20.31;49.65
39491;BME280;25175;50.140;18.990;2022-10-31T14:14:45;98944.25;;;20.21;49.83
39491;BME280;25175;50.140;18.990;2022-10-31T14:17:48;98932.50;;;20.17;50.00
39491;BME280;25175;50.140;18.990;2022-10-31T14:20:52;98936.13;;;20.06;49.79
39491;BME280;25175;50.140;18.990;2022-10-31T14:23:54;98934.47;;;20.00;49.86
39491;BME280;25175;50.140;18.990;2022-10-31T14:26:58;98927.75;;;19.93;50.09
39491;BME280;25175;50.140;18.990;2022-10-31T14:30:12;98924.22;;;19.87;50.09
39491;BME280;25175;50.140;18.990;2022-10-31T14:33:18;98920.47;;;19.83;50.10
39491;BME280;25175;50.140;18.990;2022-10-31T14:36:30;98922.03;;;19.79;50.16
39491;BME280;25175;50.140;18.990;2022-10-31T14:39:40;98926.19;;;19.75;50.31
39491;BME280;25175;50.140;18.990;2022-10-31T14:43:02;98922.38;;;19.66;50.65
39491;BME280;25175;50.140;18.990;2022-10-31T14:46:12;98927.66;;;19.61;50.68
39491;BME280;25175;50.140;18.990;2022-10-31T14:49:31;98918.00;;;19.55;50.81
39491;BME280;25175;50.140;18.990;2022-10-31T14:52:38;98926.16;;;19.49;51.09
39491;BME280;25175;50.140;18.990;2022-10-31T14:55:44;98907.19;;;19.40;50.82
39491;BME280;25175;50.140;18.990;2022-10-31T14:58:48;98912.91;;;19.32;50.70
39491;BME280;25175;50.140;18.990;2022-10-31T15:01:56;98914.41;;;19.23;51.08
39491;BME280;25175;50.140;18.990;2022-10-31T15:05:05;98915.41;;;19.17;51.44
39491;BME280;25175;50.140;18.990;2022-10-31T15:08:25;98914.22;;;19.08;51.66
39491;BME280;25175;50.140;18.990;2022-10-31T15:11:28;98914.34;;;19.02;52.05
39491;BME280;25175;50.140;18.990;2022-10-31T15:14:31;98910.25;;;18.94;52.14
39491;BME280;25175;50.140;18.990;2022-10-31T15:17:32;98908.03;;;18.86;52.13
39491;BME280;25175;50.140;18.990;2022-10-31T15:20:38;98910.78;;;18.75;52.40
39491;BME280;25175;50.140;18.990;2022-10-31T15:23:46;98914.59;;;18.62;52.91
39491;BME280;25175;50.140;18.990;2022-10-31T15:26:49;98914.19;;;18.54;53.29
39491;BME280;25175;50.140;18.990;2022-10-31T15:29:53;98909.78;;;18.43;53.52
39491;BME280;25175;50.140;18.990;2022-10-31T15:32:55;98911.78;;;18.36;53.85
39491;BME280;25175;50.140;18.990;2022-10-31T15:35:59;98908.34;;;18.24;54.19
39491;BME280;25175;50.140;18.990;2022-10-31T15:39:02;98917.50;;;18.16;54.51
39491;BME280;25175;50.140;18.990;2022-10-31T15:42:05;98919.28;;;18.11;54.86
39491;BME280;25175;50.140;18.990;2022-10-31T15:45:19;98914.94;;;18.05;54.92
39491;BME280;25175;50.140;18.990;2022-10-31T15:48:24;98916.44;;;18.01;54.88
39491;BME280;25175;50.140;18.990;2022-10-31T15:51:27;98911.56;;;17.93;54.86
39491;BME280;25175;50.140;18.990;2022-10-31T15:54:31;98920.09;;;17.83;54.91
39491;BME280;25175;50.140;18.990;2022-10-31T15:57:39;98913.00;;;17.72;55.02
39491;BME280;25175;50.140;18.990;2022-10-31T16:00:42;98916.75;;;17.60;55.25
39491;BME280;25175;50.140;18.990;2022-10-31T16:03:57;98923.31;;;17.46;55.72
39491;BME280;25175;50.140;18.990;2022-10-31T16:07:01;98915.06;;;17.31;56.10
39491;BME280;25175;50.140;18.990;2022-10-31T16:10:05;98919.81;;;17.17;56.33
39491;BME280;25175;50.140;18.990;2022-10-31T16:13:08;98909.47;;;17.04;56.78
39491;BME280;25175;50.140;18.990;2022-10-31T16:16:12;98927.34;;;16.98;56.71
39491;BME280;25175;50.140;18.990;2022-10-31T16:19:18;98928.94;;;16.87;57.16
39491;BME280;25175;50.140;18.990;2022-10-31T16:22:23;98921.81;;;16.76;57.28
39491;BME280;25175;50.140;18.990;2022-10-31T16:25:33;98923.22;;;16.67;57.47